createdAt,value
2019-03-01T00:00:41.726Z,1005.27
2019-03-01T00:01:41.699Z,1005.23
2019-03-01T00:02:41.676Z,1005.27
2019-03-01T00:03:41.650Z,1005.29
2019-03-01T00:04:41.631Z,1005.25
2019-03-01T00:05:41.609Z,1005.26
2019-03-01T00:06:41.587Z,1005.24
2019-03-01T00:07:41.562Z,1005.26
2019-03-01T00:08:41.542Z,1005.24
2019-03-01T00:09:41.514Z,1005.24
2019-03-01T00:10:41.498Z,1005.24
2019-03-01T00:11:41.473Z,1005.24
2019-03-01T00:12:41.449Z,1005.22
2019-03-01T00:13:41.423Z,1005.33
2019-03-01T00:14:41.405Z,1005.25
2019-03-01T00:15:41.378Z,1005.27
2019-03-01T00:16:41.362Z,1005.26
2019-03-01T00:17:41.331Z,1005.21
2019-03-01T00:18:41.310Z,1005.24
2019-03-01T00:19:41.290Z,1005.20
2019-03-01T00:20:41.267Z,1005.23
2019-03-01T00:21:41.244Z,1005.18
2019-03-01T00:22:41.220Z,1005.20
2019-03-01T00:23:41.197Z,1005.12
2019-03-01T00:24:41.174Z,1005.15
2019-03-01T00:25:41.152Z,1005.14
2019-03-01T00:26:41.132Z,1005.09
2019-03-01T00:27:41.106Z,1005.14
2019-03-01T00:28:41.094Z,1005.07
2019-03-01T00:29:41.060Z,1005.07
2019-03-01T00:30:41.039Z,1005.04
2019-03-01T00:31:41.016Z,1005.05
2019-03-01T00:32:40.993Z,1005.01
2019-03-01T00:33:40.971Z,1005.02
2019-03-01T00:34:40.949Z,1005.01
2019-03-01T00:35:40.953Z,1004.99
2019-03-01T00:36:40.901Z,1005.01
2019-03-01T00:37:40.881Z,1005.00
2019-03-01T00:38:40.866Z,1005.00
2019-03-01T00:39:40.834Z,1004.97
2019-03-01T00:40:40.814Z,1005.00
2019-03-01T00:41:40.788Z,1005.00
2019-03-01T00:42:40.768Z,1004.98
2019-03-01T00:43:40.743Z,1004.95
2019-03-01T00:44:40.732Z,1004.95
2019-03-01T00:45:40.698Z,1004.95
2019-03-01T00:46:40.680Z,1004.96
2019-03-01T00:47:40.655Z,1004.90
2019-03-01T00:48:40.631Z,1004.89
2019-03-01T00:49:40.611Z,1004.90
2019-03-01T00:50:40.594Z,1004.90
2019-03-01T00:51:40.566Z,1004.83
2019-03-01T00:52:40.544Z,1004.85
2019-03-01T00:53:40.520Z,1004.85
2019-03-01T00:54:40.499Z,1004.84
2019-03-01T00:55:40.475Z,1004.81
2019-03-01T00:56:40.463Z,1004.79
2019-03-01T00:57:40.431Z,1004.80
2019-03-01T00:58:40.411Z,1004.81
2019-03-01T00:59:40.387Z,1004.78
2019-03-01T01:00:40.366Z,1004.82
2019-03-01T01:01:40.350Z,1004.81
2019-03-01T01:02:40.324Z,1004.82
2019-03-01T01:03:40.299Z,1004.80
2019-03-01T01:04:40.277Z,1004.78
2019-03-01T01:05:40.255Z,1004.74
2019-03-01T01:06:40.232Z,1004.74
2019-03-01T01:07:40.219Z,1004.79
2019-03-01T01:08:40.188Z,1004.78
2019-03-01T01:09:40.164Z,1004.75
2019-03-01T01:10:40.148Z,1004.72
2019-03-01T01:11:40.120Z,1004.74
2019-03-01T01:12:40.099Z,1004.70
2019-03-01T01:13:40.075Z,1004.72
2019-03-01T01:14:40.056Z,1004.67
2019-03-01T01:15:40.032Z,1004.73
2019-03-01T01:16:40.010Z,1004.71
2019-03-01T01:17:39.989Z,1004.70
2019-03-01T01:18:39.963Z,1004.70
2019-03-01T01:19:39.942Z,1004.68
2019-03-01T01:20:39.922Z,1004.66
2019-03-01T01:21:39.897Z,1004.66
2019-03-01T01:22:39.875Z,1004.66
2019-03-01T01:23:39.854Z,1004.66
2019-03-01T01:24:39.831Z,1004.62
2019-03-01T01:25:39.807Z,1004.61
2019-03-01T01:26:39.786Z,1004.60
2019-03-01T01:27:41.054Z,1004.54
2019-03-01T01:28:39.741Z,1004.57
2019-03-01T01:29:39.718Z,1004.53
2019-03-01T01:30:39.697Z,1004.53
2019-03-01T01:31:39.673Z,1004.54
2019-03-01T01:32:39.650Z,1004.49
2019-03-01T01:33:39.627Z,1004.50
2019-03-01T01:34:39.604Z,1004.49
2019-03-01T01:35:39.583Z,1004.54
2019-03-01T01:36:39.560Z,1004.46
2019-03-01T01:37:39.538Z,1004.46
2019-03-01T01:38:39.522Z,1004.47
2019-03-01T01:39:39.497Z,1004.45
2019-03-01T01:40:39.472Z,1004.44
2019-03-01T01:41:39.449Z,1004.43
2019-03-01T01:42:39.426Z,1004.37
2019-03-01T01:43:39.402Z,1004.40
2019-03-01T01:44:39.380Z,1004.40
2019-03-01T01:45:39.357Z,1004.37
2019-03-01T01:46:39.335Z,1004.40
2019-03-01T01:47:39.315Z,1004.39
2019-03-01T01:48:39.290Z,1004.39
2019-03-01T01:49:39.266Z,1004.35
2019-03-01T01:50:39.245Z,1004.33
2019-03-01T01:51:39.222Z,1004.34
2019-03-01T01:52:39.203Z,1004.33
2019-03-01T01:53:39.181Z,1004.29
2019-03-01T01:54:39.154Z,1004.28
2019-03-01T01:55:39.132Z,1004.32
2019-03-01T01:56:39.109Z,1004.26
2019-03-01T01:57:39.089Z,1004.23
2019-03-01T01:58:39.064Z,1004.24
2019-03-01T01:59:39.042Z,1004.32
2019-03-01T02:00:39.022Z,1004.26
2019-03-01T02:01:38.997Z,1004.26
2019-03-01T02:02:38.974Z,1004.30
2019-03-01T02:03:38.952Z,1004.30
2019-03-01T02:04:38.934Z,1004.30
2019-03-01T02:05:38.908Z,1004.31
2019-03-01T02:06:38.883Z,1004.25
2019-03-01T02:07:38.864Z,1004.26
2019-03-01T02:08:38.838Z,1004.26
2019-03-01T02:09:38.818Z,1004.23
2019-03-01T02:10:38.793Z,1004.26
2019-03-01T02:11:38.771Z,1004.22
2019-03-01T02:12:38.749Z,1004.19
2019-03-01T02:13:38.726Z,1004.15
2019-03-01T02:14:38.704Z,1004.15
2019-03-01T02:15:38.685Z,1004.17
2019-03-01T02:16:38.658Z,1004.15
2019-03-01T02:17:38.633Z,1004.16
2019-03-01T02:18:38.611Z,1004.17
2019-03-01T02:19:38.593Z,1004.12
2019-03-01T02:20:38.566Z,1004.12
2019-03-01T02:21:38.548Z,1004.11
2019-03-01T02:22:38.524Z,1004.11
2019-03-01T02:23:40.132Z,1004.11
2019-03-01T02:24:38.477Z,1004.08
2019-03-01T02:25:38.454Z,1004.09
2019-03-01T02:26:38.433Z,1004.11
2019-03-01T02:27:38.407Z,1004.10
2019-03-01T02:28:38.387Z,1004.06
2019-03-01T02:29:38.372Z,1004.02
2019-03-01T02:30:38.344Z,1003.99
2019-03-01T02:31:38.321Z,1003.97
2019-03-01T02:32:38.384Z,1004.02
2019-03-01T02:33:38.274Z,1003.99
2019-03-01T02:34:38.256Z,1004.02
2019-03-01T02:35:38.249Z,1003.99
2019-03-01T02:36:38.205Z,1003.98
2019-03-01T02:37:38.180Z,1004.02
2019-03-01T02:38:38.160Z,1004.02
2019-03-01T02:39:38.143Z,1004.01
2019-03-01T02:40:38.120Z,1003.98
2019-03-01T02:41:38.091Z,1003.99
2019-03-01T02:42:38.069Z,1003.98
2019-03-01T02:43:38.056Z,1003.99
2019-03-01T02:44:38.054Z,1003.97
2019-03-01T02:45:38.013Z,1003.97
2019-03-01T02:46:37.980Z,1003.95
2019-03-01T02:47:37.959Z,1003.94
2019-03-01T02:48:37.936Z,1003.96
2019-03-01T02:49:37.912Z,1003.94
2019-03-01T02:50:37.895Z,1003.93
2019-03-01T02:51:37.906Z,1003.94
2019-03-01T02:52:37.845Z,1003.92
2019-03-01T02:53:37.823Z,1003.94
2019-03-01T02:54:37.799Z,1003.87
2019-03-01T02:55:37.783Z,1003.92
2019-03-01T02:56:37.754Z,1003.92
2019-03-01T02:57:37.735Z,1003.90
2019-03-01T02:58:37.708Z,1003.90
2019-03-01T02:59:37.685Z,1003.87
2019-03-01T03:00:37.663Z,1003.86
2019-03-01T03:01:37.641Z,1003.92
2019-03-01T03:02:37.620Z,1003.93
2019-03-01T03:03:37.597Z,1003.90
2019-03-01T03:04:37.572Z,1003.88
2019-03-01T03:05:37.570Z,1003.90
2019-03-01T03:06:37.529Z,1003.91
2019-03-01T03:07:37.506Z,1003.88
2019-03-01T03:08:37.490Z,1003.91
2019-03-01T03:09:37.463Z,1003.94
2019-03-01T03:10:37.445Z,1003.93
2019-03-01T03:11:37.414Z,1003.93
2019-03-01T03:12:37.395Z,1003.92
2019-03-01T03:13:37.368Z,1003.94
2019-03-01T03:14:37.346Z,1003.92
2019-03-01T03:15:37.322Z,1003.94
2019-03-01T03:16:37.302Z,1003.92
2019-03-01T03:17:37.279Z,1003.91
2019-03-01T03:18:37.259Z,1003.95
2019-03-01T03:19:37.232Z,1003.95
2019-03-01T03:20:37.223Z,1003.88
2019-03-01T03:21:37.186Z,1003.89
2019-03-01T03:22:37.164Z,1003.89
2019-03-01T03:23:37.143Z,1003.93
2019-03-01T03:24:37.126Z,1003.91
2019-03-01T03:25:37.097Z,1003.92
2019-03-01T03:26:37.073Z,1003.92
2019-03-01T03:27:37.068Z,1003.91
2019-03-01T03:28:37.029Z,1003.89
2019-03-01T03:29:37.005Z,1003.91
2019-03-01T03:30:36.986Z,1003.92
2019-03-01T03:31:36.977Z,1003.93
2019-03-01T03:32:36.940Z,1003.84
2019-03-01T03:33:36.936Z,1003.87
2019-03-01T03:34:36.894Z,1003.91
2019-03-01T03:35:36.871Z,1003.88
2019-03-01T03:36:36.849Z,1003.88
2019-03-01T03:37:36.828Z,1003.89
2019-03-01T03:38:36.806Z,1003.90
2019-03-01T03:39:36.801Z,1003.91
2019-03-01T03:40:36.760Z,1003.90
2019-03-01T03:41:36.736Z,1003.87
2019-03-01T03:42:36.726Z,1003.89
2019-03-01T03:43:36.727Z,1003.84
2019-03-01T03:44:36.674Z,1003.87
2019-03-01T03:45:36.650Z,1003.88
2019-03-01T03:46:36.627Z,1003.87
2019-03-01T03:47:36.609Z,1003.92
2019-03-01T03:48:36.689Z,1003.85
2019-03-01T03:49:36.560Z,1003.86
2019-03-01T03:50:36.535Z,1003.87
2019-03-01T03:51:36.515Z,1003.89
2019-03-01T03:52:36.493Z,1003.84
2019-03-01T03:53:36.470Z,1003.86
2019-03-01T03:54:36.448Z,1003.85
2019-03-01T03:55:36.438Z,1003.84
2019-03-01T03:56:36.412Z,1003.85
2019-03-01T03:57:36.382Z,1003.85
2019-03-01T03:58:36.370Z,1003.85
2019-03-01T03:59:36.340Z,1003.84
2019-03-01T04:00:36.319Z,1003.84
2019-03-01T04:01:36.292Z,1003.87
2019-03-01T04:02:36.268Z,1003.86
2019-03-01T04:03:36.253Z,1003.82
2019-03-01T04:04:36.227Z,1003.87
2019-03-01T04:05:36.203Z,1003.84
2019-03-01T04:06:36.180Z,1003.84
2019-03-01T04:07:36.159Z,1003.82
2019-03-01T04:08:36.138Z,1003.82
2019-03-01T04:09:36.113Z,1003.81
2019-03-01T04:10:36.094Z,1003.81
2019-03-01T04:11:36.081Z,1003.78
2019-03-01T04:12:36.049Z,1003.79
2019-03-01T04:13:36.027Z,1003.79
2019-03-01T04:14:36.007Z,1003.78
2019-03-01T04:15:35.981Z,1003.77
2019-03-01T04:16:35.965Z,1003.80
2019-03-01T04:17:35.960Z,1003.80
2019-03-01T04:18:35.915Z,1003.84
2019-03-01T04:19:35.898Z,1003.80
2019-03-01T04:20:35.896Z,1003.80
2019-03-01T04:21:35.911Z,1003.83
2019-03-01T04:22:35.824Z,1003.86
2019-03-01T04:23:35.810Z,1003.81
2019-03-01T04:24:35.783Z,1003.83
2019-03-01T04:25:35.760Z,1003.80
2019-03-01T04:26:35.735Z,1003.82
2019-03-01T04:27:35.714Z,1003.84
2019-03-01T04:28:35.691Z,1003.81
2019-03-01T04:29:35.671Z,1003.80
2019-03-01T04:30:35.644Z,1003.83
2019-03-01T04:31:35.634Z,1003.85
2019-03-01T04:32:35.601Z,1003.85
2019-03-01T04:33:35.576Z,1003.82
2019-03-01T04:34:35.556Z,1003.82
2019-03-01T04:35:35.537Z,1003.83
2019-03-01T04:36:35.509Z,1003.86
2019-03-01T04:37:35.492Z,1003.86
2019-03-01T04:38:35.469Z,1003.84
2019-03-01T04:39:35.448Z,1003.84
2019-03-01T04:40:35.424Z,1003.79
2019-03-01T04:41:35.404Z,1003.78
2019-03-01T04:42:35.379Z,1003.76
2019-03-01T04:43:35.350Z,1003.72
2019-03-01T04:44:35.334Z,1003.70
2019-03-01T04:45:35.304Z,1003.67
2019-03-01T04:46:35.283Z,1003.65
2019-03-01T04:47:35.260Z,1003.63
2019-03-01T04:48:35.247Z,1003.62
2019-03-01T04:49:35.214Z,1003.57
2019-03-01T04:50:35.193Z,1003.53
2019-03-01T04:51:40.089Z,1003.59
2019-03-01T04:52:35.267Z,1003.53
2019-03-01T04:53:35.134Z,1003.55
2019-03-01T04:54:35.102Z,1003.57
2019-03-01T04:55:35.161Z,1003.57
2019-03-01T04:56:35.056Z,1003.57
2019-03-01T04:57:35.033Z,1003.53
2019-03-01T04:58:35.012Z,1003.57
2019-03-01T04:59:34.989Z,1003.60
2019-03-01T05:00:34.964Z,1003.60
2019-03-01T05:01:34.942Z,1003.67
2019-03-01T05:02:34.919Z,1003.65
2019-03-01T05:03:34.896Z,1003.72
2019-03-01T05:04:34.876Z,1003.82
2019-03-01T05:05:34.858Z,1003.82
2019-03-01T05:06:34.828Z,1003.85
2019-03-01T05:07:34.807Z,1003.86
2019-03-01T05:08:34.786Z,1003.87
2019-03-01T05:09:34.762Z,1003.90
2019-03-01T05:10:34.739Z,1003.86
2019-03-01T05:11:34.716Z,1003.90
2019-03-01T05:12:34.725Z,1003.89
2019-03-01T05:13:34.681Z,1003.91
2019-03-01T05:14:34.707Z,1003.92
2019-03-01T05:15:34.628Z,1003.90
2019-03-01T05:16:34.648Z,1003.95
2019-03-01T05:17:34.584Z,1003.94
2019-03-01T05:18:34.560Z,1003.98
2019-03-01T05:19:34.601Z,1003.97
2019-03-01T05:20:34.525Z,1004.01
2019-03-01T05:21:34.502Z,1003.96
2019-03-01T05:22:34.472Z,1003.98
2019-03-01T05:23:34.452Z,1003.97
2019-03-01T05:24:34.430Z,1003.98
2019-03-01T05:25:34.406Z,1003.97
2019-03-01T05:26:34.386Z,1004.00
2019-03-01T05:27:34.375Z,1003.99
2019-03-01T05:28:34.365Z,1004.01
2019-03-01T05:29:34.321Z,1003.99
2019-03-01T05:30:34.303Z,1003.95
2019-03-01T05:31:34.278Z,1004.00
2019-03-01T05:32:34.318Z,1003.94
2019-03-01T05:33:34.285Z,1003.93
2019-03-01T05:34:34.558Z,1003.93
2019-03-01T05:35:34.195Z,1003.94
2019-03-01T05:36:34.175Z,1003.96
2019-03-01T05:37:34.149Z,1003.92
2019-03-01T05:38:34.121Z,1003.94
2019-03-01T05:39:34.154Z,1003.98
2019-03-01T05:40:34.078Z,1003.94
2019-03-01T05:41:34.066Z,1003.92
2019-03-01T05:42:34.034Z,1003.92
2019-03-01T05:43:34.014Z,1003.91
2019-03-01T05:44:33.991Z,1003.91
2019-03-01T05:45:33.972Z,1003.91
2019-03-01T05:46:33.945Z,1003.92
2019-03-01T05:47:33.924Z,1003.90
2019-03-01T05:48:33.912Z,1003.93
2019-03-01T05:49:33.885Z,1003.95
2019-03-01T05:50:33.902Z,1004.00
2019-03-01T05:51:33.838Z,1004.01
2019-03-01T05:52:33.821Z,1004.04
2019-03-01T05:53:33.797Z,1004.05
2019-03-01T05:54:33.771Z,1004.02
2019-03-01T05:55:33.758Z,1004.00
2019-03-01T05:56:33.739Z,1004.02
2019-03-01T05:57:33.727Z,1004.02
2019-03-01T05:58:33.683Z,1004.02
2019-03-01T05:59:33.688Z,1004.06
2019-03-01T06:00:33.647Z,1004.04
2019-03-01T06:01:33.617Z,1004.08
2019-03-01T06:02:33.641Z,1004.12
2019-03-01T06:03:33.578Z,1004.08
2019-03-01T06:04:33.561Z,1004.13
2019-03-01T06:05:33.537Z,1004.11
2019-03-01T06:06:33.515Z,1004.14
2019-03-01T06:07:33.485Z,1004.15
2019-03-01T06:08:33.464Z,1004.14
2019-03-01T06:09:33.450Z,1004.10
2019-03-01T06:10:33.420Z,1004.12
2019-03-01T06:11:33.459Z,1004.15
2019-03-01T06:12:33.382Z,1004.12
2019-03-01T06:13:33.373Z,1004.14
2019-03-01T06:14:33.335Z,1004.15
2019-03-01T06:15:33.308Z,1004.12
2019-03-01T06:16:33.286Z,1004.14
2019-03-01T06:17:33.263Z,1004.11
2019-03-01T06:18:33.241Z,1004.17
2019-03-01T06:19:33.229Z,1004.15
2019-03-01T06:20:33.211Z,1004.14
2019-03-01T06:21:33.184Z,1004.16
2019-03-01T06:22:33.155Z,1004.18
2019-03-01T06:23:33.172Z,1004.20
2019-03-01T06:24:33.108Z,1004.21
2019-03-01T06:25:33.088Z,1004.23
2019-03-01T06:26:33.064Z,1004.21
2019-03-01T06:27:33.063Z,1004.18
2019-03-01T06:28:33.027Z,1004.19
2019-03-01T06:29:32.994Z,1004.20
2019-03-01T06:30:32.976Z,1004.21
2019-03-01T06:31:32.951Z,1004.20
2019-03-01T06:32:32.930Z,1004.21
2019-03-01T06:33:32.914Z,1004.19
2019-03-01T06:34:32.885Z,1004.15
2019-03-01T06:35:32.863Z,1004.18
2019-03-01T06:36:32.843Z,1004.14
2019-03-01T06:37:32.818Z,1004.16
2019-03-01T06:38:32.795Z,1004.18
2019-03-01T06:39:32.772Z,1004.19
2019-03-01T06:40:32.751Z,1004.21
2019-03-01T06:41:32.728Z,1004.17
2019-03-01T06:42:32.712Z,1004.21
2019-03-01T06:43:32.684Z,1004.20
2019-03-01T06:44:32.658Z,1004.22
2019-03-01T06:45:32.635Z,1004.19
2019-03-01T06:46:32.617Z,1004.18
2019-03-01T06:47:32.592Z,1004.24
2019-03-01T06:48:32.570Z,1004.22
2019-03-01T06:49:32.546Z,1004.25
2019-03-01T06:50:32.525Z,1004.27
2019-03-01T06:51:32.500Z,1004.26
2019-03-01T06:52:32.479Z,1004.30
2019-03-01T06:53:32.464Z,1004.27
2019-03-01T06:54:32.434Z,1004.28
2019-03-01T06:55:32.416Z,1004.31
2019-03-01T06:56:32.389Z,1004.31
2019-03-01T06:57:32.366Z,1004.30
2019-03-01T06:58:32.345Z,1004.33
2019-03-01T06:59:32.323Z,1004.36
2019-03-01T07:00:32.300Z,1004.38
2019-03-01T07:01:32.284Z,1004.38
2019-03-01T07:02:32.256Z,1004.42
2019-03-01T07:03:32.231Z,1004.38
2019-03-01T07:04:32.213Z,1004.42
2019-03-01T07:05:32.196Z,1004.46
2019-03-01T07:06:32.165Z,1004.47
2019-03-01T07:07:32.143Z,1004.44
2019-03-01T07:08:32.124Z,1004.43
2019-03-01T07:09:32.099Z,1004.47
2019-03-01T07:10:32.078Z,1004.49
2019-03-01T07:11:32.201Z,1004.49
2019-03-01T07:12:32.087Z,1004.51
2019-03-01T07:13:32.011Z,1004.53
2019-03-01T07:14:31.996Z,1004.52
2019-03-01T07:15:31.975Z,1004.53
2019-03-01T07:16:31.943Z,1004.59
2019-03-01T07:17:31.920Z,1004.58
2019-03-01T07:18:31.899Z,1004.61
2019-03-01T07:19:31.879Z,1004.60
2019-03-01T07:20:31.867Z,1004.61
2019-03-01T07:21:31.869Z,1004.66
2019-03-01T07:22:31.816Z,1004.63
2019-03-01T07:23:36.823Z,1004.70
2019-03-01T07:24:31.765Z,1004.69
2019-03-01T07:25:31.742Z,1004.68
2019-03-01T07:26:31.720Z,1004.74
2019-03-01T07:27:31.697Z,1004.72
2019-03-01T07:28:31.675Z,1004.74
2019-03-01T07:29:31.655Z,1004.73
2019-03-01T07:30:31.629Z,1004.78
2019-03-01T07:31:31.608Z,1004.76
2019-03-01T07:32:31.584Z,1004.80
2019-03-01T07:33:31.571Z,1004.84
2019-03-01T07:34:31.541Z,1004.83
2019-03-01T07:35:31.518Z,1004.83
2019-03-01T07:36:31.495Z,1004.85
2019-03-01T07:37:31.477Z,1004.88
2019-03-01T07:38:31.450Z,1004.88
2019-03-01T07:39:31.428Z,1004.86
2019-03-01T07:40:31.409Z,1004.89
2019-03-01T07:41:31.393Z,1004.89
2019-03-01T07:42:31.363Z,1004.88
2019-03-01T07:43:31.338Z,1004.85
2019-03-01T07:44:31.325Z,1004.89
2019-03-01T07:45:31.297Z,1004.92
2019-03-01T07:46:31.273Z,1004.89
2019-03-01T07:47:31.268Z,1004.91
2019-03-01T07:48:31.236Z,1004.87
2019-03-01T07:49:31.209Z,1004.86
2019-03-01T07:50:31.183Z,1004.92
2019-03-01T07:51:31.627Z,1004.92
2019-03-01T07:52:31.183Z,1004.91
2019-03-01T07:53:31.119Z,1004.97
2019-03-01T07:54:31.107Z,1004.96
2019-03-01T07:55:31.076Z,1004.97
2019-03-01T07:56:31.055Z,1004.98
2019-03-01T07:57:31.660Z,1004.98
2019-03-01T07:58:31.006Z,1004.98
2019-03-01T07:59:33.388Z,1005.04
2019-03-01T08:00:30.962Z,1005.08
2019-03-01T08:01:30.955Z,1005.08
2019-03-01T08:02:30.920Z,1005.09
2019-03-01T08:03:30.908Z,1005.10
2019-03-01T08:04:30.876Z,1005.17
2019-03-01T08:05:30.856Z,1005.16
2019-03-01T08:06:30.832Z,1005.15
2019-03-01T08:07:30.809Z,1005.17
2019-03-01T08:08:30.788Z,1005.20
2019-03-01T08:09:30.765Z,1005.23
2019-03-01T08:10:30.745Z,1005.20
2019-03-01T08:11:31.776Z,1005.18
2019-03-01T08:12:30.952Z,1005.21
2019-03-01T08:13:30.681Z,1005.25
2019-03-01T08:14:31.638Z,1005.24
2019-03-01T08:15:30.635Z,1005.25
2019-03-01T08:16:30.613Z,1005.28
2019-03-01T08:17:31.639Z,1005.28
2019-03-01T08:18:30.568Z,1005.31
2019-03-01T08:19:30.553Z,1005.30
2019-03-01T08:20:33.872Z,1005.33
2019-03-01T08:21:30.548Z,1005.35
2019-03-01T08:22:30.491Z,1005.37
2019-03-01T08:23:31.795Z,1005.37
2019-03-01T08:24:30.454Z,1005.36
2019-03-01T08:25:30.432Z,1005.38
2019-03-01T08:26:30.690Z,1005.43
2019-03-01T08:27:30.379Z,1005.43
2019-03-01T08:28:30.354Z,1005.48
2019-03-01T08:29:30.734Z,1005.47
2019-03-01T08:30:30.318Z,1005.53
2019-03-01T08:31:30.292Z,1005.54
2019-03-01T08:32:30.726Z,1005.53
2019-03-01T08:33:30.243Z,1005.55
2019-03-01T08:34:30.229Z,1005.58
2019-03-01T08:35:32.158Z,1005.54
2019-03-01T08:36:30.180Z,1005.55
2019-03-01T08:37:30.163Z,1005.58
2019-03-01T08:38:30.134Z,1005.53
2019-03-01T08:39:30.114Z,1005.57
2019-03-01T08:40:30.113Z,1005.59
2019-03-01T08:41:30.077Z,1005.57
2019-03-01T08:42:32.643Z,1005.62
2019-03-01T08:43:30.031Z,1005.60
2019-03-01T08:44:30.007Z,1005.60
2019-03-01T08:45:32.971Z,1005.68
2019-03-01T08:46:29.962Z,1005.65
2019-03-01T08:47:29.941Z,1005.61
2019-03-01T08:48:30.550Z,1005.62
2019-03-01T08:49:29.896Z,1005.63
2019-03-01T08:50:29.879Z,1005.68
2019-03-01T08:51:29.854Z,1005.64
2019-03-01T08:52:29.833Z,1005.67
2019-03-01T08:53:29.819Z,1005.68
2019-03-01T08:54:31.154Z,1005.70
2019-03-01T08:55:29.771Z,1005.73
2019-03-01T08:56:29.759Z,1005.74
2019-03-01T08:57:29.735Z,1005.74
2019-03-01T08:58:29.716Z,1005.76
2019-03-01T08:59:29.682Z,1005.80
2019-03-01T09:00:29.671Z,1005.80
2019-03-01T09:01:31.672Z,1005.79
2019-03-01T09:02:29.616Z,1005.83
2019-03-01T09:03:29.595Z,1005.83
2019-03-01T09:04:29.574Z,1005.77
2019-03-01T09:05:29.552Z,1005.78
2019-03-01T09:06:29.530Z,1005.78
2019-03-01T09:07:30.221Z,1005.81
2019-03-01T09:08:29.586Z,1005.79
2019-03-01T09:09:29.466Z,1005.87
2019-03-01T09:10:32.651Z,1005.89
2019-03-01T09:11:30.623Z,1005.85
2019-03-01T09:12:29.406Z,1005.89
2019-03-01T09:13:29.382Z,1005.90
2019-03-01T09:14:29.369Z,1005.88
2019-03-01T09:15:29.339Z,1005.90
2019-03-01T09:16:29.317Z,1005.88
2019-03-01T09:17:29.295Z,1005.91
2019-03-01T09:18:29.274Z,1005.93
2019-03-01T09:19:29.254Z,1005.93
2019-03-01T09:20:29.232Z,1005.94
2019-03-01T09:21:29.209Z,1005.98
2019-03-01T09:22:29.253Z,1005.95
2019-03-01T09:23:29.167Z,1005.99
2019-03-01T09:24:29.981Z,1005.98
2019-03-01T09:25:29.138Z,1005.98
2019-03-01T09:26:29.110Z,1006.03
2019-03-01T09:27:30.279Z,1006.01
2019-03-01T09:28:29.068Z,1005.96
2019-03-01T09:29:29.043Z,1006.01
2019-03-01T09:30:29.039Z,1005.96
2019-03-01T09:31:28.999Z,1006.01
2019-03-01T09:32:30.465Z,1006.00
2019-03-01T09:33:28.957Z,1006.04
2019-03-01T09:34:32.261Z,1006.02
2019-03-01T09:35:29.809Z,1006.06
2019-03-01T09:36:28.899Z,1006.08
2019-03-01T09:37:29.643Z,1006.09
2019-03-01T09:38:28.858Z,1006.08
2019-03-01T09:39:28.834Z,1006.08
2019-03-01T09:40:29.675Z,1006.14
2019-03-01T09:41:28.794Z,1006.18
2019-03-01T09:42:28.771Z,1006.18
2019-03-01T09:43:28.753Z,1006.21
2019-03-01T09:44:28.731Z,1006.17
2019-03-01T09:45:35.904Z,1006.20
2019-03-01T09:46:28.696Z,1006.23
2019-03-01T09:47:28.669Z,1006.25
2019-03-01T09:48:28.647Z,1006.24
2019-03-01T09:49:28.633Z,1006.28
2019-03-01T09:50:34.096Z,1006.26
2019-03-01T09:51:28.589Z,1006.27
2019-03-01T09:52:28.565Z,1006.30
2019-03-01T09:53:30.608Z,1006.31
2019-03-01T09:54:28.522Z,1006.40
2019-03-01T09:55:28.525Z,1006.39
2019-03-01T09:56:28.522Z,1006.35
2019-03-01T09:57:28.465Z,1006.38
2019-03-01T09:58:28.441Z,1006.36
2019-03-01T09:59:28.458Z,1006.36
2019-03-01T10:00:28.405Z,1006.38
2019-03-01T10:01:28.377Z,1006.43
2019-03-01T10:02:28.357Z,1006.38
2019-03-01T10:03:28.335Z,1006.37
2019-03-01T10:04:28.314Z,1006.36
2019-03-01T10:05:28.294Z,1006.42
2019-03-01T10:06:37.618Z,1006.40
2019-03-01T10:07:28.252Z,1006.41
2019-03-01T10:08:28.241Z,1006.42
2019-03-01T10:09:28.210Z,1006.42
2019-03-01T10:10:28.191Z,1006.41
2019-03-01T10:11:28.169Z,1006.41
2019-03-01T10:12:28.148Z,1006.41
2019-03-01T10:13:30.293Z,1006.46
2019-03-01T10:14:28.106Z,1006.52
2019-03-01T10:15:28.098Z,1006.59
2019-03-01T10:16:28.065Z,1006.60
2019-03-01T10:17:28.069Z,1006.64
2019-03-01T10:18:28.023Z,1006.69
2019-03-01T10:19:28.005Z,1006.75
2019-03-01T10:20:27.982Z,1006.78
2019-03-01T10:21:27.961Z,1006.75
2019-03-01T10:22:27.938Z,1006.80
2019-03-01T10:23:27.917Z,1006.84
2019-03-01T10:24:27.899Z,1006.89
2019-03-01T10:25:27.873Z,1006.80
2019-03-01T10:26:27.884Z,1006.86
2019-03-01T10:27:27.836Z,1006.91
2019-03-01T10:28:27.810Z,1006.96
2019-03-01T10:29:27.787Z,1006.98
2019-03-01T10:30:27.766Z,1007.05
2019-03-01T10:31:27.746Z,1007.03
2019-03-01T10:32:27.723Z,1007.06
2019-03-01T10:33:27.700Z,1007.09
2019-03-01T10:34:27.678Z,1007.09
2019-03-01T10:35:27.659Z,1007.05
2019-03-01T10:36:27.635Z,1007.12
2019-03-01T10:37:27.622Z,1007.12
2019-03-01T10:38:27.596Z,1007.13
2019-03-01T10:39:27.573Z,1007.11
2019-03-01T10:40:27.552Z,1007.10
2019-03-01T10:41:27.524Z,1007.14
2019-03-01T10:42:27.503Z,1007.17
2019-03-01T10:43:27.485Z,1007.18
2019-03-01T10:44:27.481Z,1007.15
2019-03-01T10:45:27.436Z,1007.19
2019-03-01T10:46:27.415Z,1007.23
2019-03-01T10:47:27.391Z,1007.21
2019-03-01T10:48:27.496Z,1007.22
2019-03-01T10:49:27.350Z,1007.27
2019-03-01T10:50:27.331Z,1007.28
2019-03-01T10:51:27.303Z,1007.27
2019-03-01T10:52:27.305Z,1007.28
2019-03-01T10:53:27.284Z,1007.31
2019-03-01T10:54:27.253Z,1007.32
2019-03-01T10:55:27.245Z,1007.40
2019-03-01T10:56:27.193Z,1007.42
2019-03-01T10:57:27.168Z,1007.45
2019-03-01T10:58:27.148Z,1007.46
2019-03-01T10:59:27.129Z,1007.43
2019-03-01T11:00:27.104Z,1007.45
2019-03-01T11:01:27.092Z,1007.46
2019-03-01T11:02:27.056Z,1007.45
2019-03-01T11:03:27.035Z,1007.54
2019-03-01T11:04:27.013Z,1007.56
2019-03-01T11:05:27.010Z,1007.54
2019-03-01T11:06:26.965Z,1007.57
2019-03-01T11:07:26.944Z,1007.62
2019-03-01T11:08:26.924Z,1007.64
2019-03-01T11:09:26.898Z,1007.64
2019-03-01T11:10:26.877Z,1007.65
2019-03-01T11:11:26.886Z,1007.67
2019-03-01T11:12:26.830Z,1007.69
2019-03-01T11:13:26.807Z,1007.73
2019-03-01T11:14:26.785Z,1007.73
2019-03-01T11:15:26.764Z,1007.77
2019-03-01T11:16:26.741Z,1007.82
2019-03-01T11:17:26.723Z,1007.81
2019-03-01T11:18:26.700Z,1007.81
2019-03-01T11:19:26.672Z,1007.81
2019-03-01T11:20:26.651Z,1007.85
2019-03-01T11:21:26.625Z,1007.92
2019-03-01T11:22:26.602Z,1007.94
2019-03-01T11:23:26.580Z,1007.97
2019-03-01T11:24:26.557Z,1007.95
2019-03-01T11:25:26.535Z,1007.97
2019-03-01T11:26:26.519Z,1007.96
2019-03-01T11:27:26.491Z,1008.04
2019-03-01T11:28:26.465Z,1008.02
2019-03-01T11:29:26.448Z,1008.02
2019-03-01T11:30:26.421Z,1007.99
2019-03-01T11:31:26.405Z,1008.00
2019-03-01T11:32:26.373Z,1007.99
2019-03-01T11:33:26.354Z,1008.01
2019-03-01T11:34:26.329Z,1008.00
2019-03-01T11:35:26.305Z,1007.96
2019-03-01T11:36:26.297Z,1008.00
2019-03-01T11:37:26.259Z,1008.01
2019-03-01T11:38:26.233Z,1007.97
2019-03-01T11:39:26.217Z,1008.01
2019-03-01T11:40:26.191Z,1008.05
2019-03-01T11:41:26.167Z,1008.07
2019-03-01T11:42:26.142Z,1008.08
2019-03-01T11:43:26.119Z,1008.03
2019-03-01T11:44:26.101Z,1008.08
2019-03-01T11:45:26.072Z,1008.07
2019-03-01T11:46:26.052Z,1008.11
2019-03-01T11:47:26.025Z,1008.05
2019-03-01T11:48:26.007Z,1008.09
2019-03-01T11:49:25.978Z,1008.10
2019-03-01T11:50:25.974Z,1008.13
2019-03-01T11:51:27.756Z,1008.16
2019-03-01T11:52:25.909Z,1008.16
2019-03-01T11:53:25.884Z,1008.19
2019-03-01T11:54:25.861Z,1008.24
2019-03-01T11:55:25.840Z,1008.23
2019-03-01T11:56:25.820Z,1008.28
2019-03-01T11:57:25.791Z,1008.29
2019-03-01T11:58:25.772Z,1008.30
2019-03-01T11:59:25.744Z,1008.31
2019-03-01T12:00:25.722Z,1008.30
2019-03-01T12:01:25.697Z,1008.30
2019-03-01T12:02:25.677Z,1008.33
2019-03-01T12:03:25.654Z,1008.34
2019-03-01T12:04:25.646Z,1008.32
2019-03-01T12:05:25.604Z,1008.36